Time;durP1;ratioP1;P1;durP2;ratioP2;P2;SDS_P1;SDS_P2;PMS_P1;PMS_P2;Temp;Humidity;BMP_temperature;BMP_pressure;BME280_temperature;BME280_humidity;BME280_pressure;Samples;Min_cycle;Max_cycle;Signal;HPM_P1;HPM_P2
2022/01/01 00:02:00;;;;;;;;;5.50;4.00;;;;;16.16;53.74;98347.28;4866977;28;102162;-78
2022/01/01 00:04:29;;;;;;;;;4.00;3.25;;;;;16.16;54.40;98344.56;4863105;28;103834;-78
2022/01/01 00:06:56;;;;;;;;;8.50;5.75;;;;;16.15;54.30;98345.63;4837340;28;102119;-78
2022/01/01 00:09:23;;;;;;;;;3.50;3.50;;;;;16.15;54.33;98351.09;4864604;28;101657;-78
2022/01/01 00:11:50;;;;;;;;;5.50;4.25;;;;;16.15;54.24;98351.09;4845729;28;102003;-78
2022/01/01 00:14:17;;;;;;;;;5.00;5.00;;;;;16.14;54.53;98352.16;4862863;28;103351;-78
2022/01/01 00:16:44;;;;;;;;;7.00;4.00;;;;;16.13;54.15;98351.31;4865120;28;102106;-78
2022/01/01 00:19:11;;;;;;;;;5.00;5.00;;;;;16.13;53.85;98354.03;4862840;28;102325;-78
2022/01/01 00:21:40;;;;;;;;;3.75;3.00;;;;;16.12;54.09;98357.84;4867987;28;103915;-78
2022/01/01 00:24:07;;;;;;;;;5.75;4.00;;;;;16.12;53.98;98351.59;4863366;28;103603;-78
2022/01/01 00:26:34;;;;;;;;;4.25;3.75;;;;;16.12;53.90;98357.03;4860339;28;101670;-78
2022/01/01 00:29:01;;;;;;;;;5.75;5.75;;;;;16.13;54.34;98355.94;4866299;28;101920;-78
2022/01/01 00:31:29;;;;;;;;;5.00;4.00;;;;;16.13;53.94;98358.66;4867047;28;101956;-78
2022/01/01 00:33:59;;;;;;;;;3.00;3.00;;;;;16.13;54.21;98354.03;4863340;28;103765;-78
2022/01/01 00:36:26;;;;;;;;;4.00;3.50;;;;;16.13;54.46;98355.94;4850700;28;102307;-78
2022/01/01 00:38:54;;;;;;;;;5.00;5.00;;;;;16.12;54.33;98354.31;4846462;28;102275;-78
2022/01/01 00:41:21;;;;;;;;;5.25;5.25;;;;;16.13;54.12;98358.66;4862946;28;101770;-78
2022/01/01 00:43:48;;;;;;;;;5.00;4.25;;;;;16.11;54.31;98366.28;4866226;28;103333;-78
2022/01/01 00:46:15;;;;;;;;;3.00;3.00;;;;;16.12;53.57;98362.50;4866149;28;102226;-78
2022/01/01 00:48:45;;;;;;;;;4.00;3.00;;;;;16.10;53.82;98360.00;4865047;28;101823;-78
2022/01/01 00:51:25;;;;;;;;;3.00;3.00;;;;;16.11;54.10;98356.22;4867048;28;102221;-77
2022/01/01 00:53:52;;;;;;;;;6.00;3.75;;;;;16.10;54.16;98361.91;4868822;28;103318;-78
2022/01/01 00:56:20;;;;;;;;;6.00;4.25;;;;;16.11;54.31;98366.28;4866539;28;102003;-78
2022/01/01 00:58:47;;;;;;;;;6.00;4.75;;;;;16.08;54.03;98362.97;4866561;28;102107;-78
2022/01/01 01:01:14;;;;;;;;;4.75;4.25;;;;;16.07;54.13;98372.22;4866858;28;102098;-78
2022/01/01 01:03:41;;;;;;;;;5.00;4.75;;;;;16.09;53.78;98374.69;4857728;28;103488;-78
2022/01/01 01:06:10;;;;;;;;;7.00;5.75;;;;;16.09;54.20;98377.44;4870553;28;102138;-78
2022/01/01 01:08:37;;;;;;;;;8.00;5.50;;;;;16.10;54.13;98381.00;4832013;28;102417;-78
2022/01/01 01:11:07;;;;;;;;;5.00;5.00;;;;;16.08;54.05;98383.94;4862432;28;101892;-77
2022/01/01 01:13:36;;;;;;;;;3.50;2.50;;;;;16.10;53.67;98389.16;4861427;28;103226;-78
2022/01/01 01:16:03;;;;;;;;;4.75;3.25;;;;;16.08;53.63;98390.22;4858924;28;103158;-78
2022/01/01 01:18:31;;;;;;;;;4.25;4.25;;;;;16.08;53.85;98390.22;4860692;28;101946;-78
2022/01/01 01:20:58;;;;;;;;;1.00;1.00;;;;;16.08;53.89;98384.78;4860054;28;104511;-78
2022/01/01 01:23:25;;;;;;;;;6.00;5.00;;;;;16.07;53.79;98393.22;4864753;28;104465;-78
2022/01/01 01:25:55;;;;;;;;;3.50;3.00;;;;;16.08;53.72;98406.59;4848255;28;102075;-78
2022/01/01 01:28:22;;;;;;;;;5.75;5.00;;;;;16.08;53.72;98395.69;4857838;28;104776;-78
2022/01/01 01:30:49;;;;;;;;;3.00;3.00;;;;;16.07;53.75;98404.13;4872471;28;102464;-78
2022/01/01 01:33:16;;;;;;;;;4.00;4.00;;;;;16.06;53.85;98399.75;4860556;28;103467;-78
2022/01/01 01:35:43;;;;;;;;;4.50;3.00;;;;;16.07;54.12;98410.38;4866224;28;101998;-78
2022/01/01 01:38:11;;;;;;;;;2.25;1.00;;;;;16.06;54.44;98422.41;4865368;28;102145;-78
2022/01/01 01:40:38;;;;;;;;;3.00;3.00;;;;;16.06;53.85;98421.56;4849673;28;102351;-78
2022/01/01 01:43:11;;;;;;;;;4.75;4.25;;;;;16.06;54.11;98424.28;4847496;28;103424;-78
2022/01/01 01:45:38;;;;;;;;;4.50;4.25;;;;;16.04;54.31;98424.53;4865439;28;102051;-77
2022/01/01 01:48:05;;;;;;;;;1.00;1.00;;;;;16.06;53.35;98425.13;4858079;28;102262;-78
2022/01/01 01:50:35;;;;;;;;;5.00;4.00;;;;;16.06;53.63;98440.66;4859060;28;102389;-78
2022/01/01 01:53:02;;;;;;;;;4.50;4.00;;;;;16.05;54.05;98431.63;4866791;28;103428;-78
2022/01/01 01:55:30;;;;;;;;;4.00;4.00;;;;;16.06;53.37;98433.31;4854133;28;102042;-78
2022/01/01 01:57:57;;;;;;;;;3.25;3.00;;;;;16.05;53.95;98442.53;4862332;28;102287;-78
2022/01/01 02:02:55;;;;;;;;;3.25;2.00;;;;;16.05;54.08;98445.28;4860995;28;102413;-78
2022/01/01 02:05:23;;;;;;;;;3.75;3.50;;;;;16.05;53.64;98447.16;4862334;28;102278;-77
2022/01/01 02:07:50;;;;;;;;;3.25;3.25;;;;;16.04;53.86;98450.97;4863307;28;101859;-77
2022/01/01 02:10:17;;;;;;;;;6.00;4.00;;;;;16.03;53.58;98450.13;4863693;28;102331;-78
2022/01/01 02:12:50;;;;;;;;;3.75;2.25;;;;;16.04;53.49;98454.53;4858103;28;103709;-78
2022/01/01 02:15:48;;;;;;;;;5.00;5.00;;;;;16.04;53.59;98459.97;4865090;28;102706;-78
2022/01/01 02:18:15;;;;;;;;;4.00;3.25;;;;;16.03;54.23;98465.66;4832536;28;102039;-78
2022/01/01 02:20:49;;;;;;;;;4.00;3.00;;;;;16.02;53.57;98464.84;4866959;28;102632;-78
2022/01/01 02:23:22;;;;;;;;;5.00;4.00;;;;;16.02;53.61;98473.03;4861556;28;103383;-77
2022/01/01 02:25:50;;;;;;;;;5.25;4.00;;;;;16.03;53.65;98468.38;4843980;28;104548;-78
2022/01/01 02:28:18;;;;;;;;;3.50;3.00;;;;;16.03;54.15;98471.13;4841123;28;102222;-77
2022/01/01 02:30:45;;;;;;;;;4.25;4.25;;;;;16.02;54.01;98473.03;4862300;28;102209;-77
2022/01/01 02:33:13;;;;;;;;;5.50;4.00;;;;;16.03;53.41;98474.66;4860579;28;104498;-78
2022/01/01 02:35:40;;;;;;;;;4.25;3.00;;;;;16.03;53.49;98485.59;4860455;28;102223;-78
2022/01/01 02:38:07;;;;;;;;;5.00;3.25;;;;;16.03;53.81;98482.84;4858565;28;102568;-78
2022/01/01 02:40:35;;;;;;;;;3.75;3.50;;;;;16.03;54.13;98492.94;4865361;28;103243;-78
2022/01/01 02:43:03;;;;;;;;;6.75;3.00;;;;;16.02;53.84;98505.78;4861448;28;103400;-77
2022/01/01 02:45:31;;;;;;;;;2.75;2.00;;;;;16.02;54.22;98497.59;4863529;28;101919;-77
2022/01/01 02:47:58;;;;;;;;;3.00;3.00;;;;;16.03;53.59;98495.66;4863444;28;102107;-77
2022/01/01 02:50:25;;;;;;;;;3.75;3.00;;;;;16.02;53.29;98500.31;4863737;28;101915;-78
2022/01/01 02:52:52;;;;;;;;;4.00;4.00;;;;;16.02;53.89;98505.78;4863471;28;103217;-77
2022/01/01 02:55:19;;;;;;;;;4.75;4.00;;;;;16.00;54.28;98502.44;4868084;28;102151;-78
2022/01/01 02:57:46;;;;;;;;;3.00;3.00;;;;;16.01;54.05;98506.81;4865932;28;101790;-78
2022/01/01 03:00:14;;;;;;;;;4.00;3.25;;;;;16.01;54.07;98509.56;4864575;28;102358;-77
2022/01/01 03:02:41;;;;;;;;;4.00;3.00;;;;;15.99;53.79;98505.38;4851191;28;103367;-78
2022/01/01 03:05:08;;;;;;;;;4.00;3.25;;;;;16.00;53.77;98498.88;4861054;28;102231;-78
2022/01/01 03:07:36;;;;;;;;;3.00;3.00;;;;;15.99;53.73;98492.59;4863022;28;102127;-78
2022/01/01 03:10:03;;;;;;;;;4.25;3.50;;;;;16.00;53.98;98510.63;4864982;28;104508;-78
2022/01/01 03:12:31;;;;;;;;;3.00;3.00;;;;;16.00;53.73;98498.88;4861622;28;103389;-77
2022/01/01 03:14:58;;;;;;;;;3.50;3.00;;;;;16.01;53.83;98497.81;4865772;28;102223;-78
2022/01/01 03:17:25;;;;;;;;;3.00;3.00;;;;;15.98;53.84;98493.69;4863826;28;105050;-78
2022/01/01 03:19:52;;;;;;;;;3.00;3.00;;;;;16.01;53.78;98503.28;4867851;28;103079;-78
2022/01/01 03:22:19;;;;;;;;;4.00;3.00;;;;;16.01;53.83;98508.72;4866702;28;103443;-77
2022/01/01 03:24:46;;;;;;;;;2.50;2.50;;;;;16.00;53.82;98502.44;4864972;28;101865;-78
2022/01/01 03:27:12;;;;;;;;;3.00;2.00;;;;;16.00;53.87;98510.63;4862201;28;102391;-78
2022/01/01 03:29:39;;;;;;;;;1.50;1.50;;;;;15.99;53.54;98506.22;4864904;28;101833;-78
2022/01/01 03:32:07;;;;;;;;;3.00;3.00;;;;;15.99;53.72;98516.28;4867034;28;104533;-78
2022/01/01 03:34:34;;;;;;;;;3.00;3.00;;;;;15.99;53.73;98510.84;4864037;28;102428;-77
2022/01/01 03:37:01;;;;;;;;;3.75;3.00;;;;;15.99;53.80;98510.84;4864568;28;101909;-77
2022/01/01 03:39:28;;;;;;;;;1.25;1.25;;;;;15.99;54.12;98519.03;4866916;28;102062;-78
2022/01/01 03:41:56;;;;;;;;;4.50;3.25;;;;;15.98;53.65;98525.56;4866353;28;103579;-78
2022/01/01 03:44:23;;;;;;;;;4.25;2.25;;;;;15.98;53.71;98531.84;4865804;28;102489;-78
2022/01/01 03:46:54;;;;;;;;;3.50;3.00;;;;;15.98;54.20;98520.13;4859550;28;102611;-78
2022/01/01 03:49:21;;;;;;;;;3.25;2.75;;;;;15.96;53.64;98525.78;4849132;28;103654;-78
2022/01/01 03:51:48;;;;;;;;;3.50;3.00;;;;;15.97;53.57;98532.09;4861734;28;103262;-77
2022/01/01 03:54:16;;;;;;;;;2.75;2.75;;;;;15.98;53.79;98531.84;4863664;28;102009;-78
2022/01/01 03:56:43;;;;;;;;;2.00;1.25;;;;;15.97;54.10;98535.66;4861636;28;103920;-77
2022/01/01 03:59:10;;;;;;;;;3.00;3.00;;;;;15.97;53.61;98541.09;4865962;28;102102;-78
2022/01/01 04:01:37;;;;;;;;;3.75;3.00;;;;;15.97;53.80;98541.09;4859955;28;103561;-78
2022/01/01 04:04:05;;;;;;;;;4.50;2.50;;;;;15.98;54.12;98539.22;4865087;28;102012;-78
2022/01/01 04:06:32;;;;;;;;;1.00;1.00;;;;;15.97;54.01;98538.38;4866026;28;101804;-78
2022/01/01 04:08:59;;;;;;;;;1.25;1.00;;;;;15.97;53.89;98535.66;4851628;28;102734;-78
2022/01/01 04:11:26;;;;;;;;;2.00;2.00;;;;;15.97;54.35;98543.00;4861845;28;103815;-78
2022/01/01 04:13:53;;;;;;;;;3.00;3.00;;;;;15.96;54.04;98539.44;4862395;28;102146;-78
2022/01/01 04:16:21;;;;;;;;;2.00;1.25;;;;;15.97;53.91;98538.38;4861613;28;105120;-78
2022/01/01 04:18:48;;;;;;;;;4.25;3.25;;;;;15.96;54.26;98544.88;4863232;28;102272;-78
2022/01/01 04:21:15;;;;;;;;;3.50;2.00;;;;;15.96;54.01;98538.59;4864202;28;103525;-78
2022/01/01 04:23:44;;;;;;;;;4.25;2.25;;;;;15.94;54.28;98538.81;4860891;28;102327;-78
2022/01/01 04:26:11;;;;;;;;;3.00;2.00;;;;;15.95;53.72;98543.22;4864185;28;104930;-78
2022/01/01 04:28:40;;;;;;;;;2.75;2.75;;;;;15.96;54.07;98553.06;4864705;28;102838;-78
2022/01/01 04:31:07;;;;;;;;;2.00;2.00;;;;;15.94;53.55;98547.00;4861645;28;104676;-78
2022/01/01 04:33:34;;;;;;;;;1.00;1.00;;;;;15.95;53.82;98551.41;4862927;28;102099;-78
2022/01/01 04:36:01;;;;;;;;;3.00;2.00;;;;;15.96;53.57;98553.06;4861631;28;102201;-78
2022/01/01 04:38:42;;;;;;;;;2.25;2.00;;;;;15.94;54.24;98557.91;4861646;28;102339;-78
2022/01/01 04:41:14;;;;;;;;;3.00;3.00;;;;;15.97;53.73;98562.91;4861302;28;103602;-78
2022/01/01 04:43:46;;;;;;;;;3.00;2.25;;;;;15.96;54.05;98568.59;4863832;28;104368;-78
2022/01/01 04:46:13;;;;;;;;;2.50;2.50;;;;;15.96;54.21;98568.59;4867828;28;102365;-78
2022/01/01 04:48:41;;;;;;;;;2.00;2.00;;;;;15.95;54.12;98565.03;4863278;28;102125;-78
2022/01/01 04:51:08;;;;;;;;;4.00;2.50;;;;;15.95;54.03;98565.03;4859857;28;103371;-78
2022/01/01 04:53:35;;;;;;;;;2.00;2.00;;;;;15.94;53.66;98568.81;4865755;28;102088;-78
2022/01/01 04:56:06;;;;;;;;;1.75;1.00;;;;;15.95;53.67;98575.94;4857252;28;102105;-78
2022/01/01 04:58:34;;;;;;;;;3.00;3.00;;;;;15.95;53.97;98569.66;4851070;28;102865;-78
2022/01/01 05:01:01;;;;;;;;;1.00;1.00;;;;;15.93;54.15;98567.19;4865460;28;104968;-78
2022/01/01 05:03:29;;;;;;;;;2.00;2.00;;;;;15.93;53.99;98569.91;4863268;28;102346;-78
2022/01/01 05:05:56;;;;;;;;;3.00;2.00;;;;;15.93;53.92;98572.66;4860643;28;102243;-78
2022/01/01 05:08:23;;;;;;;;;2.00;2.00;;;;;15.94;53.66;98568.81;4851661;28;102245;-78
2022/01/01 05:10:50;;;;;;;;;2.00;2.00;;;;;15.94;53.71;98581.66;4861596;28;103306;-77
2022/01/01 05:13:19;;;;;;;;;1.00;1.00;;;;;15.94;53.61;98578.94;4862970;28;102025;-78
2022/01/01 05:15:48;;;;;;;;;1.75;1.75;;;;;15.94;53.48;98589.84;4861297;28;103424;-78
2022/01/01 05:18:16;;;;;;;;;2.00;2.00;;;;;15.94;53.53;98587.13;4859063;28;102074;-78
2022/01/01 05:20:43;;;;;;;;;2.25;2.25;;;;;15.94;54.16;98578.94;4858997;28;103379;-78
2022/01/01 05:23:10;;;;;;;;;2.00;2.00;;;;;15.94;54.17;98592.56;4865583;28;102049;-78
2022/01/01 05:25:37;;;;;;;;;2.00;2.00;;;;;15.95;54.13;98596.94;4859113;28;102419;-77
2022/01/01 05:28:04;;;;;;;;;2.75;1.25;;;;;15.94;54.08;98592.56;4862775;28;102179;-78
2022/01/01 05:30:31;;;;;;;;;2.75;2.00;;;;;15.94;54.33;98596.09;4865877;28;103393;-78
2022/01/01 05:33:02;;;;;;;;;1.25;1.25;;;;;15.94;54.22;98604.28;4862370;28;105236;-77
2022/01/01 05:35:30;;;;;;;;;1.25;1.25;;;;;15.94;53.82;98606.19;4863551;28;101778;-77
2022/01/01 05:37:57;;;;;;;;;1.00;1.00;;;;;15.93;54.08;98612.72;4867997;28;101985;-77
2022/01/01 05:40:44;;;;;;;;;2.00;2.00;;;;;15.93;54.01;98612.72;4860554;28;105137;-78
2022/01/01 05:43:13;;;;;;;;;2.00;2.00;;;;;15.92;54.21;98622.78;4858093;28;102692;-78
2022/01/01 05:45:42;;;;;;;;;3.00;2.00;;;;;15.92;54.10;98620.06;4844857;28;101829;-77
2022/01/01 05:48:10;;;;;;;;;2.25;1.75;;;;;15.92;53.64;98625.50;4828519;28;102636;-78
2022/01/01 05:50:37;;;;;;;;;1.75;1.75;;;;;15.92;54.42;98630.97;4861525;28;103685;-78
2022/01/01 05:53:04;;;;;;;;;1.00;1.00;;;;;15.93;54.26;98642.72;4860578;28;102959;-78
2022/01/01 05:55:31;;;;;;;;;2.00;2.00;;;;;15.93;53.62;98629.91;4855420;28;101994;-78
2022/01/01 05:57:58;;;;;;;;;2.75;2.00;;;;;15.92;53.77;98628.25;4861216;28;107369;-78
2022/01/01 06:00:25;;;;;;;;;2.00;2.00;;;;;15.92;53.92;98630.97;4860524;28;103491;-78
2022/01/01 06:02:52;;;;;;;;;2.00;1.50;;;;;15.92;54.17;98636.44;4860434;28;102189;-78
2022/01/01 06:05:19;;;;;;;;;1.00;0.75;;;;;15.92;54.07;98633.69;4870505;28;101991;-78
2022/01/01 06:07:46;;;;;;;;;2.00;1.00;;;;;15.93;53.74;98634.53;4865796;28;102324;-78
2022/01/01 06:10:13;;;;;;;;;3.00;1.50;;;;;15.92;54.25;98644.59;4859789;28;103204;-78
2022/01/01 06:12:40;;;;;;;;;2.50;2.00;;;;;15.92;53.81;98643.78;4861590;28;102005;-78
2022/01/01 06:15:07;;;;;;;;;1.25;1.25;;;;;15.93;54.15;98645.44;4861817;28;105237;-78
2022/01/01 06:17:34;;;;;;;;;2.00;2.00;;;;;15.92;54.41;98651.94;4865164;28;102392;-78
2022/01/01 06:20:01;;;;;;;;;1.00;1.00;;;;;15.91;54.40;98651.13;4861420;28;105907;-78
2022/01/01 06:22:29;;;;;;;;;3.00;1.75;;;;;15.90;54.36;98654.91;4860179;28;103863;-78
2022/01/01 06:24:56;;;;;;;;;1.00;1.00;;;;;15.91;54.20;98655.72;4861916;28;103534;-78
2022/01/01 06:27:23;;;;;;;;;1.75;1.00;;;;;15.90;53.87;98657.63;4866242;28;102095;-78
2022/01/01 06:29:50;;;;;;;;;3.75;1.75;;;;;15.90;54.35;98646.72;4862049;28;103674;-77
2022/01/01 06:32:17;;;;;;;;;2.00;1.25;;;;;15.90;54.28;98668.53;4847869;28;103481;-77
2022/01/01 06:34:44;;;;;;;;;2.00;2.00;;;;;15.91;54.29;98669.38;4860392;28;102083;-77
2022/01/01 06:37:11;;;;;;;;;1.00;0.00;;;;;15.90;54.02;98668.53;4862828;28;102096;-78
2022/01/01 06:39:38;;;;;;;;;1.00;1.00;;;;;15.92;53.50;98673.78;4862005;28;103460;-78
2022/01/01 06:42:05;;;;;;;;;0.50;0.50;;;;;15.90;54.28;98660.34;4863784;28;102086;-78
2022/01/01 06:44:32;;;;;;;;;1.50;1.50;;;;;15.91;53.88;98681.13;4864532;28;102821;-78
2022/01/01 06:46:59;;;;;;;;;1.00;1.00;;;;;15.90;54.45;98684.91;4862884;28;101962;-78
2022/01/01 06:49:26;;;;;;;;;3.25;2.00;;;;;15.90;54.03;98682.16;4868494;28;103338;-78
2022/01/01 06:51:53;;;;;;;;;1.00;1.00;;;;;15.92;53.82;98684.69;4864920;28;106914;-78
2022/01/01 06:54:20;;;;;;;;;1.50;1.50;;;;;15.89;54.47;98680.53;4844089;28;102708;-78
2022/01/01 06:56:47;;;;;;;;;2.00;1.75;;;;;15.90;53.90;98681.34;4869251;28;102105;-78
2022/01/01 06:59:14;;;;;;;;;2.00;1.50;;;;;15.90;54.02;98687.63;4863997;28;103593;-78
2022/01/01 07:01:41;;;;;;;;;1.75;0.00;;;;;15.90;54.16;98695.81;4865930;28;101806;-78
2022/01/01 07:04:08;;;;;;;;;0.50;0.50;;;;;15.90;54.25;98698.53;4866010;28;102563;-78
2022/01/01 07:06:37;;;;;;;;;1.25;0.75;;;;;15.89;54.43;98690.59;4868035;28;101792;-78
2022/01/01 07:09:04;;;;;;;;;0.75;0.50;;;;;15.89;54.43;98696.91;4864738;28;103223;-78
2022/01/01 07:11:31;;;;;;;;;2.00;1.00;;;;;15.88;54.60;98692.50;4851960;28;101808;-78
2022/01/01 07:13:58;;;;;;;;;2.00;1.00;;;;;15.89;54.01;98694.16;4863027;28;104578;-77
2022/01/01 07:16:26;;;;;;;;;1.00;1.00;;;;;15.90;54.36;98703.16;4863337;28;102409;-78
2022/01/01 07:18:53;;;;;;;;;3.00;2.00;;;;;15.89;53.75;98699.63;4845295;28;102623;-77
2022/01/01 07:21:20;;;;;;;;;1.00;1.00;;;;;15.88;54.56;98697.94;4864247;28;101759;-78
2022/01/01 07:23:47;;;;;;;;;1.50;1.50;;;;;15.89;54.11;98713.25;4860783;28;105047;-78
2022/01/01 07:26:14;;;;;;;;;1.75;1.00;;;;;15.89;54.14;98710.53;4867225;28;102001;-78
2022/01/01 07:28:42;;;;;;;;;1.50;1.50;;;;;15.89;53.83;98724.16;4859176;28;103417;-78
2022/01/01 07:31:09;;;;;;;;;1.00;1.00;;;;;15.89;54.13;98715.16;4866655;28;101773;-78
2022/01/01 07:33:36;;;;;;;;;1.00;1.00;;;;;15.88;54.33;98719.75;4865639;28;101844;-78
2022/01/01 07:36:04;;;;;;;;;1.50;1.50;;;;;15.86;54.83;98719.16;4860128;28;101982;-79
2022/01/01 07:38:31;;;;;;;;;1.50;1.00;;;;;15.88;54.15;98719.75;4874659;28;104467;-78
2022/01/01 07:40:58;;;;;;;;;2.00;1.00;;;;;15.89;54.08;98721.44;4865584;28;102336;-78
2022/01/01 07:43:26;;;;;;;;;0.00;0.00;;;;;15.86;54.34;98719.16;4870823;28;102203;-78
2022/01/01 07:45:53;;;;;;;;;2.00;2.00;;;;;15.88;54.22;98733.41;4868615;28;102340;-78
2022/01/01 07:48:20;;;;;;;;;1.00;1.00;;;;;15.89;54.30;98739.69;4861149;28;103641;-78
2022/01/01 07:50:47;;;;;;;;;2.00;2.00;;;;;15.89;54.41;98728.78;4865356;28;102202;-78
2022/01/01 07:53:14;;;;;;;;;1.00;1.00;;;;;15.88;54.56;98736.13;4866816;28;104474;-78
2022/01/01 07:55:41;;;;;;;;;1.75;1.00;;;;;15.89;54.41;98728.78;4867873;28;102175;-78
2022/01/01 07:58:09;;;;;;;;;0.75;0.75;;;;;15.89;54.39;98748.72;4868278;28;104365;-78
2022/01/01 08:00:36;;;;;;;;;1.00;1.00;;;;;15.88;54.11;98744.31;4865491;28;103351;-78
2022/01/01 08:03:03;;;;;;;;;2.25;1.25;;;;;15.89;54.31;98748.72;4866400;28;102058;-78
2022/01/01 08:05:30;;;;;;;;;0.00;0.00;;;;;15.90;53.93;98752.25;4872289;28;105416;-78
2022/01/01 08:07:59;;;;;;;;;1.00;1.00;;;;;15.89;54.01;98753.31;4861781;28;103572;-78
2022/01/01 08:10:30;;;;;;;;;1.25;1.25;;;;;15.89;54.54;98759.63;4868995;28;102218;-78
2022/01/01 08:12:57;;;;;;;;;2.00;1.00;;;;;15.89;54.35;98761.50;4865814;28;104629;-78
2022/01/01 08:15:24;;;;;;;;;1.50;1.00;;;;;15.89;54.43;98762.34;4866646;28;102341;-78
2022/01/01 08:17:51;;;;;;;;;1.75;1.00;;;;;15.88;54.60;98754.38;4869840;28;105544;-78
2022/01/01 08:20:19;;;;;;;;;1.00;0.50;;;;;15.87;54.39;98760.88;4865163;28;103159;-79
2022/01/01 08:22:46;;;;;;;;;1.00;1.00;;;;;15.88;54.03;98768.00;4863108;28;103161;-79
2022/01/01 08:25:14;;;;;;;;;0.50;0.50;;;;;15.87;54.48;98772.63;4864471;28;102662;-79
2022/01/01 08:27:42;;;;;;;;;1.00;0.00;;;;;15.88;54.43;98765.28;4865926;28;103327;-79
2022/01/01 08:30:10;;;;;;;;;1.00;1.00;;;;;15.89;54.12;98766.97;4846306;28;102084;-78
2022/01/01 08:32:37;;;;;;;;;1.00;1.00;;;;;15.88;54.00;98770.75;4863357;28;103188;-77
2022/01/01 08:35:05;;;;;;;;;1.50;1.00;;;;;15.89;54.54;98775.97;4867519;28;103002;-78
2022/01/01 08:37:31;;;;;;;;;0.00;0.00;;;;;15.88;54.40;98774.31;4866240;28;103527;-79
2022/01/01 08:39:58;;;;;;;;;1.00;0.25;;;;;15.89;53.77;98778.69;4859954;28;104783;-78
2022/01/01 08:42:26;;;;;;;;;1.50;1.00;;;;;15.89;53.94;98784.16;4866372;28;102200;-78
2022/01/01 08:44:53;;;;;;;;;0.75;0.75;;;;;15.88;54.42;98785.22;4869039;28;102341;-78
2022/01/01 08:47:24;;;;;;;;;2.00;1.25;;;;;15.87;54.50;98780.81;4866544;28;103584;-78
2022/01/01 08:49:52;;;;;;;;;1.25;1.25;;;;;15.86;54.43;98776.41;4864904;28;102177;-79
2022/01/01 08:52:19;;;;;;;;;1.00;0.25;;;;;15.86;54.35;98775.59;4864681;28;103908;-78
2022/01/01 08:54:46;;;;;;;;;1.00;1.00;;;;;15.86;54.49;98778.31;4867209;28;102181;-79
2022/01/01 08:57:13;;;;;;;;;1.00;0.00;;;;;15.84;54.30;98781.28;4863921;28;103393;-78
2022/01/01 08:59:40;;;;;;;;;1.50;1.00;;;;;15.85;54.02;98790.31;4863245;28;107231;-78
2022/01/01 09:02:07;;;;;;;;;1.00;1.00;;;;;15.83;54.27;98790.53;4851766;28;102274;-78
2022/01/01 09:04:34;;;;;;;;;0.25;0.25;;;;;15.83;53.98;98790.53;4869051;28;101941;-78
2022/01/01 09:07:01;;;;;;;;;1.00;1.00;;;;;15.81;54.11;98791.78;4866821;28;103413;-78
2022/01/01 09:09:28;;;;;;;;;1.25;0.50;;;;;15.83;54.36;98806.03;4855376;28;102221;-79
2022/01/01 09:11:56;;;;;;;;;1.00;1.00;;;;;15.82;54.35;98810.66;4866839;28;102141;-79
2022/01/01 09:14:23;;;;;;;;;0.75;0.75;;;;;15.82;54.10;98807.09;4869892;28;102132;-79
2022/01/01 09:16:51;;;;;;;;;0.00;0.00;;;;;15.82;54.27;98815.28;4867181;28;103748;-79
2022/01/01 09:19:19;;;;;;;;;1.00;0.50;;;;;15.82;54.26;98816.13;4862706;28;102183;-79
2022/01/01 09:21:46;;;;;;;;;0.00;0.00;;;;;15.78;53.97;98814.91;4872096;28;102344;-79
2022/01/01 09:24:13;;;;;;;;;1.00;1.00;;;;;15.81;53.91;98811.72;4869450;28;102157;-79
2022/01/01 09:26:40;;;;;;;;;1.00;1.00;;;;;15.80;54.03;98801.91;4854807;28;103346;-78
2022/01/01 09:29:10;;;;;;;;;1.00;1.00;;;;;15.81;54.27;98813.59;4875351;28;102233;-79
2022/01/01 09:31:42;;;;;;;;;1.00;0.00;;;;;15.79;54.13;98816.59;4869161;28;101766;-79
2022/01/01 09:34:09;;;;;;;;;1.00;0.50;;;;;15.78;54.32;98820.38;4872649;28;102041;-79
2022/01/01 09:36:36;;;;;;;;;1.00;1.00;;;;;15.78;54.20;98819.53;4866137;28;103978;-79
2022/01/01 09:39:04;;;;;;;;;0.75;0.75;;;;;15.78;53.71;98831.28;4868989;28;102128;-78
2022/01/01 09:41:31;;;;;;;;;2.00;1.00;;;;;15.78;53.86;98824.97;4865174;28;102166;-75
2022/01/01 09:43:58;;;;;;;;;0.75;0.25;;;;;15.76;53.38;98833.38;4850070;28;102340;-78
2022/01/01 09:46:29;;;;;;;;;1.00;0.00;;;;;15.77;54.03;98829.59;4853172;28;103266;-78
2022/01/01 09:48:56;;;;;;;;;2.00;0.25;;;;;15.77;53.85;98837.78;4855691;28;102405;-78
2022/01/01 09:51:23;;;;;;;;;0.00;0.00;;;;;15.78;54.23;98836.72;4850757;28;102359;-77
2022/01/01 09:53:50;;;;;;;;;1.00;0.25;;;;;15.77;53.60;98840.50;4856169;28;102165;-78
2022/01/01 09:56:17;;;;;;;;;0.50;0.50;;;;;15.77;53.99;98835.06;4849852;28;103363;-79
2022/01/01 09:58:45;;;;;;;;;0.25;0.25;;;;;15.77;53.99;98835.06;4850252;28;102193;-78
2022/01/01 10:01:12;;;;;;;;;0.50;0.50;;;;;15.77;53.54;98834.22;4853775;28;102149;-79
2022/01/01 10:03:41;;;;;;;;;1.00;0.25;;;;;15.77;53.82;98834.22;4849778;28;101942;-78
2022/01/01 10:06:12;;;;;;;;;1.00;1.00;;;;;15.77;53.82;98840.50;4835706;28;103941;-78
2022/01/01 10:08:40;;;;;;;;;1.00;1.00;;;;;15.77;53.44;98848.69;4852083;28;102162;-79
2022/01/01 10:11:08;;;;;;;;;1.00;1.00;;;;;15.74;53.86;98845.59;4849170;28;102427;-78
2022/01/01 10:13:37;;;;;;;;;2.00;2.00;;;;;15.76;53.96;98852.47;4840158;28;101829;-78
2022/01/01 10:16:06;;;;;;;;;2.00;2.00;;;;;15.78;53.48;98846.78;4850227;28;103430;-79
2022/01/01 10:18:35;;;;;;;;;3.00;3.00;;;;;15.79;54.15;98838.41;4850501;28;103062;-78
2022/01/01 10:21:08;;;;;;;;;3.00;3.00;;;;;15.80;53.90;98841.97;4855126;28;103146;-78
2022/01/01 10:23:36;;;;;;;;;2.25;2.25;;;;;15.80;53.73;98839.22;4833604;28;102901;-79
2022/01/01 10:29:23;;;;;;;;;4.50;4.00;;;;;15.82;54.14;98842.53;4855764;28;101770;-79
2022/01/01 10:32:01;;;;;;;;;5.75;5.25;;;;;15.83;54.23;98841.50;4851475;28;103190;-79
2022/01/01 10:34:30;;;;;;;;;5.00;5.00;;;;;15.82;54.47;98843.38;4837406;28;102821;-79
2022/01/01 10:36:57;;;;;;;;;5.00;5.00;;;;;15.82;54.15;98846.13;4856924;28;104037;-79
2022/01/01 10:39:24;;;;;;;;;11.75;9.75;;;;;15.81;54.52;98846.31;4849966;28;102991;-79
2022/01/01 10:41:59;;;;;;;;;9.50;8.00;;;;;15.82;54.59;98846.13;4848556;28;102211;-79
2022/01/01 10:44:34;;;;;;;;;10.25;9.25;;;;;15.82;54.04;98846.13;4849156;28;102000;-78
2022/01/01 10:47:05;;;;;;;;;11.00;8.25;;;;;15.80;54.23;98834.63;4849765;28;103401;-79
2022/01/01 10:52:28;;;;;;;;;10.25;9.00;;;;;15.79;53.97;98830.22;4834608;28;102585;-79
2022/01/01 10:54:59;;;;;;;;;9.25;8.25;;;;;15.80;54.23;98829.16;4852632;28;102648;-79
2022/01/01 10:57:29;;;;;;;;;10.75;9.50;;;;;15.80;54.38;98831.88;4837751;28;103390;-79
2022/01/01 11:00:23;;;;;;;;;10.00;9.75;;;;;15.80;53.90;98840.06;4847115;28;103042;-79
2022/01/01 11:02:52;;;;;;;;;10.00;9.25;;;;;15.80;54.44;98839.22;4848471;28;101755;-78
2022/01/01 11:05:31;;;;;;;;;8.50;8.25;;;;;15.79;53.91;98841.13;4851485;28;102008;-79
2022/01/01 11:07:58;;;;;;;;;10.00;8.75;;;;;15.79;53.84;98843.00;4848099;28;103180;-79
2022/01/01 11:10:25;;;;;;;;;12.00;8.00;;;;;15.79;53.92;98840.28;4852025;28;102758;-79
2022/01/01 11:12:53;;;;;;;;;9.25;8.00;;;;;15.80;53.93;98850.16;4855094;28;102139;-79
2022/01/01 11:15:23;;;;;;;;;10.25;7.75;;;;;15.79;54.24;98854.75;4851200;28;103355;-79
2022/01/01 11:17:50;;;;;;;;;10.00;10.00;;;;;15.79;53.61;98860.22;4841985;28;103176;-79
2022/01/01 11:20:18;;;;;;;;;8.50;8.50;;;;;15.79;53.86;98860.22;4852455;28;102031;-79
2022/01/01 11:22:47;;;;;;;;;11.50;9.75;;;;;15.79;53.50;98846.56;4855347;28;102004;-79
2022/01/01 11:25:15;;;;;;;;;10.75;8.00;;;;;15.78;53.85;98846.78;4853350;28;103631;-79
2022/01/01 11:27:43;;;;;;;;;8.00;8.00;;;;;15.78;53.86;98841.34;4851384;28;103426;-78
2022/01/01 11:30:13;;;;;;;;;7.75;7.25;;;;;15.78;54.06;98844.06;4840168;28;102416;-78
2022/01/01 11:32:55;;;;;;;;;9.25;8.25;;;;;15.76;54.12;98836.09;4854821;28;102192;-79
2022/01/01 11:35:27;;;;;;;;;12.00;7.75;;;;;15.77;53.73;98839.66;4823031;28;103527;-79
2022/01/01 11:38:01;;;;;;;;;10.00;8.50;;;;;15.76;53.86;98840.75;4841899;28;102441;-78